UATT 290330Z 04003MPS CAVOK M13/M18 Q1038 NOSIG RMK QFE758/1011
QNH:(hPa/inHg/mmHg)1038 / 30.65 / 779
QFE:(hPa/inHg/mmHg)1011 / 29.84 / 758
Temperature-13
Dew Point-18
Visibility> 10000
WeatherCAVOK
Cloud Cover
Transition Altitude10000 ft.
Transition LevelFL110
SQUAWK